sensor_id;sensor_type;location;lat;lon;timestamp;P1;durP1;ratioP1;P2;durP2;ratioP2
44440;SDS011;30146;52.268;20.944;2022-11-20T00:00:48;41.30;;;22.50;;
44440;SDS011;30146;52.268;20.944;2022-11-20T00:03:19;43.90;;;22.70;;
44440;SDS011;30146;52.268;20.944;2022-11-20T00:05:51;45.60;;;21.90;;
44440;SDS011;30146;52.268;20.944;2022-11-20T00:08:22;51.90;;;24.50;;
44440;SDS011;30146;52.268;20.944;2022-11-20T00:10:53;46.80;;;23.10;;
44440;SDS011;30146;52.268;20.944;2022-11-20T00:13:24;45.40;;;21.70;;
44440;SDS011;30146;52.268;20.944;2022-11-20T00:15:58;37.50;;;19.80;;
44440;SDS011;30146;52.268;20.944;2022-11-20T00:18:30;51.60;;;24.50;;
44440;SDS011;30146;52.268;20.944;2022-11-20T00:21:03;48.80;;;23.10;;
44440;SDS011;30146;52.268;20.944;2022-11-20T00:23:36;41.80;;;18.70;;
44440;SDS011;30146;52.268;20.944;2022-11-20T00:26:08;47.30;;;25.40;;
44440;SDS011;30146;52.268;20.944;2022-11-20T00:28:41;42.00;;;21.90;;
44440;SDS011;30146;52.268;20.944;2022-11-20T00:31:14;37.70;;;18.70;;
44440;SDS011;30146;52.268;20.944;2022-11-20T00:33:46;43.10;;;22.20;;
44440;SDS011;30146;52.268;20.944;2022-11-20T00:36:18;45.50;;;21.90;;
44440;SDS011;30146;52.268;20.944;2022-11-20T00:38:52;45.60;;;22.70;;
44440;SDS011;30146;52.268;20.944;2022-11-20T00:41:25;47.60;;;23.60;;
44440;SDS011;30146;52.268;20.944;2022-11-20T00:43:57;44.70;;;23.30;;
44440;SDS011;30146;52.268;20.944;2022-11-20T00:46:28;57.10;;;26.60;;
44440;SDS011;30146;52.268;20.944;2022-11-20T00:48:59;45.50;;;22.90;;
44440;SDS011;30146;52.268;20.944;2022-11-20T00:51:30;40.70;;;20.00;;
44440;SDS011;30146;52.268;20.944;2022-11-20T00:54:02;39.90;;;20.20;;
44440;SDS011;30146;52.268;20.944;2022-11-20T00:56:33;36.00;;;19.70;;
44440;SDS011;30146;52.268;20.944;2022-11-20T00:59:04;42.40;;;21.40;;
44440;SDS011;30146;52.268;20.944;2022-11-20T01:01:35;38.70;;;19.00;;
44440;SDS011;30146;52.268;20.944;2022-11-20T01:04:07;47.40;;;23.00;;
44440;SDS011;30146;52.268;20.944;2022-11-20T01:06:38;35.50;;;19.00;;
44440;SDS011;30146;52.268;20.944;2022-11-20T01:09:11;41.30;;;21.70;;
44440;SDS011;30146;52.268;20.944;2022-11-20T01:11:43;31.80;;;17.10;;
44440;SDS011;30146;52.268;20.944;2022-11-20T01:14:16;38.50;;;20.80;;
44440;SDS011;30146;52.268;20.944;2022-11-20T01:16:48;40.90;;;20.50;;
44440;SDS011;30146;52.268;20.944;2022-11-20T01:19:21;44.10;;;23.20;;
44440;SDS011;30146;52.268;20.944;2022-11-20T01:21:53;50.30;;;23.50;;
44440;SDS011;30146;52.268;20.944;2022-11-20T01:24:24;43.60;;;22.70;;
44440;SDS011;30146;52.268;20.944;2022-11-20T01:26:55;45.80;;;21.70;;
44440;SDS011;30146;52.268;20.944;2022-11-20T01:29:27;49.00;;;24.60;;
44440;SDS011;30146;52.268;20.944;2022-11-20T01:31:58;51.30;;;22.70;;
44440;SDS011;30146;52.268;20.944;2022-11-20T01:34:29;39.90;;;20.70;;
44440;SDS011;30146;52.268;20.944;2022-11-20T01:37:00;56.20;;;21.10;;
44440;SDS011;30146;52.268;20.944;2022-11-20T01:39:31;46.50;;;21.30;;
44440;SDS011;30146;52.268;20.944;2022-11-20T01:42:02;42.50;;;22.10;;
44440;SDS011;30146;52.268;20.944;2022-11-20T01:44:53;36.70;;;15.80;;
44440;SDS011;30146;52.268;20.944;2022-11-20T01:47:27;42.20;;;20.70;;
44440;SDS011;30146;52.268;20.944;2022-11-20T01:50:06;34.40;;;18.60;;
44440;SDS011;30146;52.268;20.944;2022-11-20T01:52:45;43.00;;;22.10;;
44440;SDS011;30146;52.268;20.944;2022-11-20T01:55:19;43.40;;;23.50;;
44440;SDS011;30146;52.268;20.944;2022-11-20T01:57:55;43.30;;;22.50;;
44440;SDS011;30146;52.268;20.944;2022-11-20T02:00:26;44.50;;;20.50;;
44440;SDS011;30146;52.268;20.944;2022-11-20T02:02:58;42.70;;;20.00;;
44440;SDS011;30146;52.268;20.944;2022-11-20T02:05:32;49.20;;;23.50;;
44440;SDS011;30146;52.268;20.944;2022-11-20T02:08:07;27.50;;;16.20;;
44440;SDS011;30146;52.268;20.944;2022-11-20T02:10:38;42.10;;;20.30;;
44440;SDS011;30146;52.268;20.944;2022-11-20T02:13:10;43.80;;;22.70;;
44440;SDS011;30146;52.268;20.944;2022-11-20T02:15:58;32.70;;;15.50;;
44440;SDS011;30146;52.268;20.944;2022-11-20T02:18:30;34.60;;;17.50;;
44440;SDS011;30146;52.268;20.944;2022-11-20T02:21:03;46.80;;;19.60;;
44440;SDS011;30146;52.268;20.944;2022-11-20T02:23:52;44.20;;;23.80;;
44440;SDS011;30146;52.268;20.944;2022-11-20T02:26:27;37.20;;;18.60;;
44440;SDS011;30146;52.268;20.944;2022-11-20T02:29:01;43.90;;;22.10;;
44440;SDS011;30146;52.268;20.944;2022-11-20T02:31:40;45.40;;;24.60;;
44440;SDS011;30146;52.268;20.944;2022-11-20T02:34:12;42.10;;;24.40;;
44440;SDS011;30146;52.268;20.944;2022-11-20T02:36:43;24.10;;;15.10;;
44440;SDS011;30146;52.268;20.944;2022-11-20T02:39:15;44.50;;;21.70;;
44440;SDS011;30146;52.268;20.944;2022-11-20T02:41:49;44.30;;;23.50;;
44440;SDS011;30146;52.268;20.944;2022-11-20T02:44:21;47.00;;;23.70;;
44440;SDS011;30146;52.268;20.944;2022-11-20T02:46:52;51.50;;;23.90;;
44440;SDS011;30146;52.268;20.944;2022-11-20T02:49:25;33.20;;;17.50;;
44440;SDS011;30146;52.268;20.944;2022-11-20T02:51:57;51.20;;;25.30;;
44440;SDS011;30146;52.268;20.944;2022-11-20T02:54:28;45.50;;;22.30;;
44440;SDS011;30146;52.268;20.944;2022-11-20T02:56:59;49.10;;;22.80;;
44440;SDS011;30146;52.268;20.944;2022-11-20T02:59:30;39.40;;;20.00;;
44440;SDS011;30146;52.268;20.944;2022-11-20T03:02:01;51.50;;;25.10;;
44440;SDS011;30146;52.268;20.944;2022-11-20T03:04:33;44.10;;;23.70;;
44440;SDS011;30146;52.268;20.944;2022-11-20T03:07:04;50.70;;;23.50;;
44440;SDS011;30146;52.268;20.944;2022-11-20T03:09:36;43.80;;;22.00;;
44440;SDS011;30146;52.268;20.944;2022-11-20T03:12:07;43.50;;;20.10;;
44440;SDS011;30146;52.268;20.944;2022-11-20T03:14:38;36.50;;;19.80;;
44440;SDS011;30146;52.268;20.944;2022-11-20T03:17:10;45.60;;;22.00;;
44440;SDS011;30146;52.268;20.944;2022-11-20T03:19:41;41.90;;;22.30;;
44440;SDS011;30146;52.268;20.944;2022-11-20T03:22:12;47.80;;;22.90;;
44440;SDS011;30146;52.268;20.944;2022-11-20T03:24:43;46.10;;;23.40;;
44440;SDS011;30146;52.268;20.944;2022-11-20T03:27:14;41.80;;;22.20;;
44440;SDS011;30146;52.268;20.944;2022-11-20T03:29:45;38.40;;;21.00;;
44440;SDS011;30146;52.268;20.944;2022-11-20T03:32:16;41.50;;;19.70;;
44440;SDS011;30146;52.268;20.944;2022-11-20T03:34:47;43.60;;;22.40;;
44440;SDS011;30146;52.268;20.944;2022-11-20T03:37:19;43.60;;;19.00;;
44440;SDS011;30146;52.268;20.944;2022-11-20T03:39:50;40.20;;;21.00;;
44440;SDS011;30146;52.268;20.944;2022-11-20T03:42:21;47.00;;;25.30;;
44440;SDS011;30146;52.268;20.944;2022-11-20T03:45:09;40.10;;;20.40;;
44440;SDS011;30146;52.268;20.944;2022-11-20T03:47:41;34.10;;;18.10;;
44440;SDS011;30146;52.268;20.944;2022-11-20T03:50:12;43.10;;;22.80;;
44440;SDS011;30146;52.268;20.944;2022-11-20T03:52:44;49.90;;;24.40;;
44440;SDS011;30146;52.268;20.944;2022-11-20T03:55:15;35.20;;;19.10;;
44440;SDS011;30146;52.268;20.944;2022-11-20T03:57:46;45.60;;;21.00;;
44440;SDS011;30146;52.268;20.944;2022-11-20T04:00:17;36.60;;;19.00;;
44440;SDS011;30146;52.268;20.944;2022-11-20T04:02:48;44.70;;;23.60;;
44440;SDS011;30146;52.268;20.944;2022-11-20T04:05:20;44.10;;;20.90;;
44440;SDS011;30146;52.268;20.944;2022-11-20T04:07:51;37.40;;;19.60;;
44440;SDS011;30146;52.268;20.944;2022-11-20T04:10:22;52.70;;;25.30;;
44440;SDS011;30146;52.268;20.944;2022-11-20T04:12:53;41.40;;;20.50;;
44440;SDS011;30146;52.268;20.944;2022-11-20T04:15:25;46.40;;;23.90;;
44440;SDS011;30146;52.268;20.944;2022-11-20T04:17:56;48.90;;;21.90;;
44440;SDS011;30146;52.268;20.944;2022-11-20T04:20:27;40.60;;;22.00;;
44440;SDS011;30146;52.268;20.944;2022-11-20T04:22:58;45.50;;;23.30;;
44440;SDS011;30146;52.268;20.944;2022-11-20T04:25:29;52.00;;;24.20;;
44440;SDS011;30146;52.268;20.944;2022-11-20T04:28:00;29.50;;;15.60;;
44440;SDS011;30146;52.268;20.944;2022-11-20T04:30:32;44.50;;;23.30;;
44440;SDS011;30146;52.268;20.944;2022-11-20T04:33:03;46.60;;;24.10;;
44440;SDS011;30146;52.268;20.944;2022-11-20T04:35:34;51.00;;;23.10;;
44440;SDS011;30146;52.268;20.944;2022-11-20T04:38:06;42.80;;;21.30;;
44440;SDS011;30146;52.268;20.944;2022-11-20T04:40:37;46.50;;;22.80;;
44440;SDS011;30146;52.268;20.944;2022-11-20T04:43:08;47.70;;;23.70;;
44440;SDS011;30146;52.268;20.944;2022-11-20T04:45:39;43.20;;;22.10;;
44440;SDS011;30146;52.268;20.944;2022-11-20T04:48:10;46.40;;;22.10;;
44440;SDS011;30146;52.268;20.944;2022-11-20T04:50:41;38.20;;;21.00;;
44440;SDS011;30146;52.268;20.944;2022-11-20T04:53:13;51.20;;;24.30;;
44440;SDS011;30146;52.268;20.944;2022-11-20T04:55:44;49.40;;;22.90;;
44440;SDS011;30146;52.268;20.944;2022-11-20T04:58:16;40.70;;;20.10;;
44440;SDS011;30146;52.268;20.944;2022-11-20T05:00:47;46.30;;;22.70;;
44440;SDS011;30146;52.268;20.944;2022-11-20T05:03:19;52.10;;;25.00;;
44440;SDS011;30146;52.268;20.944;2022-11-20T05:05:50;47.00;;;24.00;;
44440;SDS011;30146;52.268;20.944;2022-11-20T05:08:21;34.00;;;18.40;;
44440;SDS011;30146;52.268;20.944;2022-11-20T05:10:53;54.20;;;25.30;;
44440;SDS011;30146;52.268;20.944;2022-11-20T05:16:02;41.10;;;20.30;;
44440;SDS011;30146;52.268;20.944;2022-11-20T05:18:35;50.40;;;23.40;;
44440;SDS011;30146;52.268;20.944;2022-11-20T05:21:07;46.60;;;22.50;;
44440;SDS011;30146;52.268;20.944;2022-11-20T05:23:40;50.60;;;23.40;;
44440;SDS011;30146;52.268;20.944;2022-11-20T05:26:14;48.40;;;24.00;;
44440;SDS011;30146;52.268;20.944;2022-11-20T05:28:46;33.40;;;16.40;;
44440;SDS011;30146;52.268;20.944;2022-11-20T05:31:17;39.50;;;21.60;;
44440;SDS011;30146;52.268;20.944;2022-11-20T05:33:55;45.60;;;21.70;;
44440;SDS011;30146;52.268;20.944;2022-11-20T05:36:27;48.00;;;22.90;;
44440;SDS011;30146;52.268;20.944;2022-11-20T05:38:59;46.80;;;22.90;;
44440;SDS011;30146;52.268;20.944;2022-11-20T05:41:30;48.40;;;23.30;;
44440;SDS011;30146;52.268;20.944;2022-11-20T05:44:03;46.10;;;23.10;;
44440;SDS011;30146;52.268;20.944;2022-11-20T05:46:35;41.60;;;21.00;;
44440;SDS011;30146;52.268;20.944;2022-11-20T05:49:06;45.50;;;22.40;;
44440;SDS011;30146;52.268;20.944;2022-11-20T05:51:37;41.40;;;22.20;;
44440;SDS011;30146;52.268;20.944;2022-11-20T05:54:08;45.80;;;21.70;;
44440;SDS011;30146;52.268;20.944;2022-11-20T05:56:39;51.00;;;23.70;;
44440;SDS011;30146;52.268;20.944;2022-11-20T05:59:10;46.00;;;20.50;;
44440;SDS011;30146;52.268;20.944;2022-11-20T06:01:41;39.70;;;20.80;;
44440;SDS011;30146;52.268;20.944;2022-11-20T06:04:12;38.50;;;21.80;;
44440;SDS011;30146;52.268;20.944;2022-11-20T06:06:43;38.10;;;18.50;;
44440;SDS011;30146;52.268;20.944;2022-11-20T06:09:14;56.90;;;27.10;;
44440;SDS011;30146;52.268;20.944;2022-11-20T06:11:46;58.00;;;27.60;;
44440;SDS011;30146;52.268;20.944;2022-11-20T06:14:17;39.10;;;21.20;;
44440;SDS011;30146;52.268;20.944;2022-11-20T06:16:48;46.70;;;22.10;;
44440;SDS011;30146;52.268;20.944;2022-11-20T06:19:19;34.60;;;19.00;;
44440;SDS011;30146;52.268;20.944;2022-11-20T06:21:51;43.50;;;22.50;;
44440;SDS011;30146;52.268;20.944;2022-11-20T06:24:22;40.00;;;21.10;;
44440;SDS011;30146;52.268;20.944;2022-11-20T06:26:53;28.10;;;15.70;;
44440;SDS011;30146;52.268;20.944;2022-11-20T06:29:25;40.10;;;21.80;;
44440;SDS011;30146;52.268;20.944;2022-11-20T06:32:01;42.30;;;22.70;;
44440;SDS011;30146;52.268;20.944;2022-11-20T06:34:32;42.40;;;21.00;;
44440;SDS011;30146;52.268;20.944;2022-11-20T06:37:03;24.80;;;14.60;;
44440;SDS011;30146;52.268;20.944;2022-11-20T06:39:34;44.20;;;21.50;;
44440;SDS011;30146;52.268;20.944;2022-11-20T06:42:05;40.20;;;21.40;;
44440;SDS011;30146;52.268;20.944;2022-11-20T06:44:37;53.30;;;22.50;;
44440;SDS011;30146;52.268;20.944;2022-11-20T06:47:08;38.90;;;21.10;;
44440;SDS011;30146;52.268;20.944;2022-11-20T06:49:39;44.90;;;23.10;;
44440;SDS011;30146;52.268;20.944;2022-11-20T06:52:10;45.80;;;23.30;;
44440;SDS011;30146;52.268;20.944;2022-11-20T06:54:41;40.50;;;20.70;;
44440;SDS011;30146;52.268;20.944;2022-11-20T06:57:12;40.80;;;23.40;;
44440;SDS011;30146;52.268;20.944;2022-11-20T06:59:43;42.00;;;21.70;;
44440;SDS011;30146;52.268;20.944;2022-11-20T07:02:14;45.40;;;24.50;;
44440;SDS011;30146;52.268;20.944;2022-11-20T07:04:45;53.50;;;29.20;;
44440;SDS011;30146;52.268;20.944;2022-11-20T07:07:16;41.80;;;26.00;;
44440;SDS011;30146;52.268;20.944;2022-11-20T07:09:48;44.10;;;25.60;;
44440;SDS011;30146;52.268;20.944;2022-11-20T07:12:19;46.00;;;26.40;;
44440;SDS011;30146;52.268;20.944;2022-11-20T07:14:50;46.20;;;24.30;;
44440;SDS011;30146;52.268;20.944;2022-11-20T07:17:21;45.10;;;25.00;;
44440;SDS011;30146;52.268;20.944;2022-11-20T07:19:52;42.10;;;25.00;;
44440;SDS011;30146;52.268;20.944;2022-11-20T07:22:24;43.40;;;24.90;;
44440;SDS011;30146;52.268;20.944;2022-11-20T07:24:55;45.50;;;27.50;;
44440;SDS011;30146;52.268;20.944;2022-11-20T07:27:26;50.50;;;27.90;;
44440;SDS011;30146;52.268;20.944;2022-11-20T07:29:57;43.70;;;27.50;;
44440;SDS011;30146;52.268;20.944;2022-11-20T07:32:28;53.10;;;28.20;;
44440;SDS011;30146;52.268;20.944;2022-11-20T07:34:59;46.70;;;28.10;;
44440;SDS011;30146;52.268;20.944;2022-11-20T07:37:30;45.10;;;27.40;;
44440;SDS011;30146;52.268;20.944;2022-11-20T07:40:05;40.30;;;24.90;;
44440;SDS011;30146;52.268;20.944;2022-11-20T07:42:37;46.30;;;28.20;;
44440;SDS011;30146;52.268;20.944;2022-11-20T07:45:10;42.40;;;25.90;;
44440;SDS011;30146;52.268;20.944;2022-11-20T07:47:41;47.20;;;28.30;;
44440;SDS011;30146;52.268;20.944;2022-11-20T07:50:12;44.60;;;26.20;;
44440;SDS011;30146;52.268;20.944;2022-11-20T07:52:44;36.80;;;25.80;;
44440;SDS011;30146;52.268;20.944;2022-11-20T07:55:16;41.20;;;26.20;;
44440;SDS011;30146;52.268;20.944;2022-11-20T07:57:47;42.40;;;26.90;;
44440;SDS011;30146;52.268;20.944;2022-11-20T08:00:25;40.60;;;27.20;;
44440;SDS011;30146;52.268;20.944;2022-11-20T08:02:56;42.80;;;27.80;;
44440;SDS011;30146;52.268;20.944;2022-11-20T08:05:27;42.40;;;26.50;;
44440;SDS011;30146;52.268;20.944;2022-11-20T08:07:58;41.00;;;27.20;;
44440;SDS011;30146;52.268;20.944;2022-11-20T08:10:30;41.30;;;27.40;;
44440;SDS011;30146;52.268;20.944;2022-11-20T08:13:01;48.40;;;29.10;;
44440;SDS011;30146;52.268;20.944;2022-11-20T08:15:50;41.90;;;27.80;;
44440;SDS011;30146;52.268;20.944;2022-11-20T08:18:26;48.20;;;29.10;;
44440;SDS011;30146;52.268;20.944;2022-11-20T08:21:02;40.50;;;28.50;;
44440;SDS011;30146;52.268;20.944;2022-11-20T08:23:34;43.00;;;28.80;;
44440;SDS011;30146;52.268;20.944;2022-11-20T08:26:05;49.50;;;29.30;;
44440;SDS011;30146;52.268;20.944;2022-11-20T08:28:36;41.00;;;28.70;;
44440;SDS011;30146;52.268;20.944;2022-11-20T08:31:07;46.30;;;29.40;;
44440;SDS011;30146;52.268;20.944;2022-11-20T08:33:39;46.20;;;30.00;;
44440;SDS011;30146;52.268;20.944;2022-11-20T08:36:10;45.80;;;29.20;;
44440;SDS011;30146;52.268;20.944;2022-11-20T08:38:42;41.30;;;29.50;;
44440;SDS011;30146;52.268;20.944;2022-11-20T08:41:15;51.20;;;31.30;;
44440;SDS011;30146;52.268;20.944;2022-11-20T08:43:55;53.20;;;30.80;;
44440;SDS011;30146;52.268;20.944;2022-11-20T08:46:28;44.50;;;28.50;;
44440;SDS011;30146;52.268;20.944;2022-11-20T08:49:04;51.30;;;30.10;;
44440;SDS011;30146;52.268;20.944;2022-11-20T08:51:37;44.00;;;26.70;;
44440;SDS011;30146;52.268;20.944;2022-11-20T08:54:10;45.20;;;30.50;;
44440;SDS011;30146;52.268;20.944;2022-11-20T08:56:41;47.40;;;31.20;;
44440;SDS011;30146;52.268;20.944;2022-11-20T08:59:13;45.80;;;29.20;;
44440;SDS011;30146;52.268;20.944;2022-11-20T09:02:04;42.50;;;29.10;;
44440;SDS011;30146;52.268;20.944;2022-11-20T09:04:35;49.40;;;31.90;;
44440;SDS011;30146;52.268;20.944;2022-11-20T09:07:06;47.60;;;30.20;;
44440;SDS011;30146;52.268;20.944;2022-11-20T09:09:37;42.10;;;28.90;;
44440;SDS011;30146;52.268;20.944;2022-11-20T09:12:08;50.40;;;30.70;;
44440;SDS011;30146;52.268;20.944;2022-11-20T09:14:40;57.40;;;36.80;;
44440;SDS011;30146;52.268;20.944;2022-11-20T09:17:11;41.90;;;30.50;;
44440;SDS011;30146;52.268;20.944;2022-11-20T09:19:43;43.70;;;29.60;;
44440;SDS011;30146;52.268;20.944;2022-11-20T09:22:14;48.00;;;30.00;;
44440;SDS011;30146;52.268;20.944;2022-11-20T09:24:46;48.20;;;31.00;;
44440;SDS011;30146;52.268;20.944;2022-11-20T09:27:17;42.50;;;29.50;;
44440;SDS011;30146;52.268;20.944;2022-11-20T09:29:50;38.60;;;27.80;;
44440;SDS011;30146;52.268;20.944;2022-11-20T09:32:21;45.30;;;28.70;;
44440;SDS011;30146;52.268;20.944;2022-11-20T09:34:52;49.50;;;30.00;;
44440;SDS011;30146;52.268;20.944;2022-11-20T09:37:23;44.00;;;29.40;;
44440;SDS011;30146;52.268;20.944;2022-11-20T09:39:54;53.80;;;30.20;;
44440;SDS011;30146;52.268;20.944;2022-11-20T09:42:30;43.80;;;30.50;;
44440;SDS011;30146;52.268;20.944;2022-11-20T09:45:12;44.00;;;29.00;;
44440;SDS011;30146;52.268;20.944;2022-11-20T09:47:55;45.40;;;30.40;;
44440;SDS011;30146;52.268;20.944;2022-11-20T09:50:41;41.20;;;28.40;;
44440;SDS011;30146;52.268;20.944;2022-11-20T09:53:19;40.80;;;30.70;;
44440;SDS011;30146;52.268;20.944;2022-11-20T09:55:55;43.50;;;30.10;;
44440;SDS011;30146;52.268;20.944;2022-11-20T09:58:29;43.00;;;30.50;;
44440;SDS011;30146;52.268;20.944;2022-11-20T10:01:08;45.50;;;30.30;;
44440;SDS011;30146;52.268;20.944;2022-11-20T10:03:48;48.50;;;31.40;;
44440;SDS011;30146;52.268;20.944;2022-11-20T10:06:28;47.20;;;31.60;;
44440;SDS011;30146;52.268;20.944;2022-11-20T10:09:03;52.40;;;32.10;;
44440;SDS011;30146;52.268;20.944;2022-11-20T10:11:48;46.10;;;30.70;;
44440;SDS011;30146;52.268;20.944;2022-11-20T10:14:36;53.20;;;32.30;;
44440;SDS011;30146;52.268;20.944;2022-11-20T10:17:15;53.00;;;32.50;;
44440;SDS011;30146;52.268;20.944;2022-11-20T10:19:59;49.70;;;31.10;;
44440;SDS011;30146;52.268;20.944;2022-11-20T10:22:45;56.00;;;33.10;;
44440;SDS011;30146;52.268;20.944;2022-11-20T10:25:26;52.50;;;32.50;;
44440;SDS011;30146;52.268;20.944;2022-11-20T10:28:22;55.20;;;32.90;;
44440;SDS011;30146;52.268;20.944;2022-11-20T10:31:04;55.90;;;32.90;;
44440;SDS011;30146;52.268;20.944;2022-11-20T10:33:41;52.00;;;30.50;;
44440;SDS011;30146;52.268;20.944;2022-11-20T10:36:38;56.20;;;32.70;;
44440;SDS011;30146;52.268;20.944;2022-11-20T10:39:16;55.70;;;31.70;;
44440;SDS011;30146;52.268;20.944;2022-11-20T10:41:53;60.50;;;31.30;;
44440;SDS011;30146;52.268;20.944;2022-11-20T10:44:27;51.90;;;30.90;;
44440;SDS011;30146;52.268;20.944;2022-11-20T10:47:25;49.00;;;28.40;;
44440;SDS011;30146;52.268;20.944;2022-11-20T10:50:01;49.20;;;28.90;;
44440;SDS011;30146;52.268;20.944;2022-11-20T10:52:40;49.70;;;29.50;;
44440;SDS011;30146;52.268;20.944;2022-11-20T10:55:23;48.60;;;27.00;;
44440;SDS011;30146;52.268;20.944;2022-11-20T10:58:24;46.30;;;26.30;;
44440;SDS011;30146;52.268;20.944;2022-11-20T11:01:11;50.20;;;29.10;;
44440;SDS011;30146;52.268;20.944;2022-11-20T11:03:47;50.40;;;28.60;;
44440;SDS011;30146;52.268;20.944;2022-11-20T11:06:22;42.50;;;25.80;;
44440;SDS011;30146;52.268;20.944;2022-11-20T11:09:04;51.20;;;28.10;;
44440;SDS011;30146;52.268;20.944;2022-11-20T11:11:41;44.40;;;26.60;;
44440;SDS011;30146;52.268;20.944;2022-11-20T11:14:13;44.70;;;25.90;;
44440;SDS011;30146;52.268;20.944;2022-11-20T11:16:50;50.70;;;26.80;;
44440;SDS011;30146;52.268;20.944;2022-11-20T11:19:22;35.30;;;22.70;;
44440;SDS011;30146;52.268;20.944;2022-11-20T11:21:54;44.30;;;26.30;;
44440;SDS011;30146;52.268;20.944;2022-11-20T11:24:26;49.20;;;27.10;;
44440;SDS011;30146;52.268;20.944;2022-11-20T11:27:12;44.10;;;26.10;;
44440;SDS011;30146;52.268;20.944;2022-11-20T11:29:46;47.20;;;26.40;;
44440;SDS011;30146;52.268;20.944;2022-11-20T11:32:19;47.30;;;27.50;;
44440;SDS011;30146;52.268;20.944;2022-11-20T11:35:00;45.30;;;28.40;;
44440;SDS011;30146;52.268;20.944;2022-11-20T11:37:34;45.60;;;27.20;;
44440;SDS011;30146;52.268;20.944;2022-11-20T11:40:08;40.90;;;23.30;;
44440;SDS011;30146;52.268;20.944;2022-11-20T11:42:54;41.30;;;24.40;;
44440;SDS011;30146;52.268;20.944;2022-11-20T11:45:27;47.40;;;27.30;;
44440;SDS011;30146;52.268;20.944;2022-11-20T11:48:00;43.80;;;26.20;;
44440;SDS011;30146;52.268;20.944;2022-11-20T11:50:33;35.80;;;21.30;;
44440;SDS011;30146;52.268;20.944;2022-11-20T11:53:07;39.20;;;22.40;;
44440;SDS011;30146;52.268;20.944;2022-11-20T11:55:44;41.60;;;23.70;;
44440;SDS011;30146;52.268;20.944;2022-11-20T11:58:23;51.20;;;26.20;;
44440;SDS011;30146;52.268;20.944;2022-11-20T12:01:20;49.90;;;26.10;;
44440;SDS011;30146;52.268;20.944;2022-11-20T12:04:02;46.00;;;22.30;;
44440;SDS011;30146;52.268;20.944;2022-11-20T12:06:41;48.70;;;27.00;;
44440;SDS011;30146;52.268;20.944;2022-11-20T12:09:17;45.00;;;26.20;;
44440;SDS011;30146;52.268;20.944;2022-11-20T12:14:27;47.20;;;27.60;;
44440;SDS011;30146;52.268;20.944;2022-11-20T12:17:02;43.40;;;24.30;;
44440;SDS011;30146;52.268;20.944;2022-11-20T12:19:34;43.60;;;22.80;;
44440;SDS011;30146;52.268;20.944;2022-11-20T12:22:07;38.40;;;22.20;;
44440;SDS011;30146;52.268;20.944;2022-11-20T12:24:54;40.90;;;22.70;;
44440;SDS011;30146;52.268;20.944;2022-11-20T12:27:39;51.00;;;25.40;;
44440;SDS011;30146;52.268;20.944;2022-11-20T12:30:33;43.70;;;24.10;;
44440;SDS011;30146;52.268;20.944;2022-11-20T12:33:37;42.10;;;24.30;;
44440;SDS011;30146;52.268;20.944;2022-11-20T12:36:22;38.60;;;20.30;;
44440;SDS011;30146;52.268;20.944;2022-11-20T12:39:15;43.00;;;23.80;;
44440;SDS011;30146;52.268;20.944;2022-11-20T12:42:02;37.00;;;19.70;;
44440;SDS011;30146;52.268;20.944;2022-11-20T12:45:12;34.80;;;19.90;;
44440;SDS011;30146;52.268;20.944;2022-11-20T12:50:35;38.30;;;19.60;;
44440;SDS011;30146;52.268;20.944;2022-11-20T12:53:37;39.30;;;19.60;;
44440;SDS011;30146;52.268;20.944;2022-11-20T12:56:21;48.20;;;22.80;;
44440;SDS011;30146;52.268;20.944;2022-11-20T12:59:14;43.40;;;20.80;;
44440;SDS011;30146;52.268;20.944;2022-11-20T13:02:01;35.10;;;18.00;;
44440;SDS011;30146;52.268;20.944;2022-11-20T13:04:55;38.50;;;20.30;;
44440;SDS011;30146;52.268;20.944;2022-11-20T13:07:36;44.50;;;21.70;;
44440;SDS011;30146;52.268;20.944;2022-11-20T13:10:11;36.80;;;21.90;;
44440;SDS011;30146;52.268;20.944;2022-11-20T13:12:56;50.00;;;22.20;;
44440;SDS011;30146;52.268;20.944;2022-11-20T13:15:42;42.50;;;21.80;;
44440;SDS011;30146;52.268;20.944;2022-11-20T13:18:21;46.30;;;20.90;;
44440;SDS011;30146;52.268;20.944;2022-11-20T13:21:01;36.30;;;17.70;;
44440;SDS011;30146;52.268;20.944;2022-11-20T13:23:42;35.60;;;20.20;;
44440;SDS011;30146;52.268;20.944;2022-11-20T13:26:19;40.90;;;21.60;;
44440;SDS011;30146;52.268;20.944;2022-11-20T13:29:01;41.60;;;24.60;;
44440;SDS011;30146;52.268;20.944;2022-11-20T13:31:39;54.50;;;22.00;;
44440;SDS011;30146;52.268;20.944;2022-11-20T13:34:23;36.30;;;22.30;;
44440;SDS011;30146;52.268;20.944;2022-11-20T13:36:57;42.00;;;21.00;;
44440;SDS011;30146;52.268;20.944;2022-11-20T13:39:33;50.70;;;22.70;;
44440;SDS011;30146;52.268;20.944;2022-11-20T13:42:20;47.70;;;24.80;;
44440;SDS011;30146;52.268;20.944;2022-11-20T13:45:00;40.90;;;22.10;;
44440;SDS011;30146;52.268;20.944;2022-11-20T13:47:38;34.10;;;19.80;;
44440;SDS011;30146;52.268;20.944;2022-11-20T13:50:19;36.00;;;19.40;;
44440;SDS011;30146;52.268;20.944;2022-11-20T13:52:59;47.20;;;24.10;;
44440;SDS011;30146;52.268;20.944;2022-11-20T13:55:40;44.80;;;23.60;;
44440;SDS011;30146;52.268;20.944;2022-11-20T13:58:23;44.90;;;23.30;;
44440;SDS011;30146;52.268;20.944;2022-11-20T14:01:08;44.40;;;23.00;;
44440;SDS011;30146;52.268;20.944;2022-11-20T14:03:44;46.10;;;24.80;;
44440;SDS011;30146;52.268;20.944;2022-11-20T14:06:38;52.80;;;26.90;;
44440;SDS011;30146;52.268;20.944;2022-11-20T14:09:12;51.00;;;24.90;;
44440;SDS011;30146;52.268;20.944;2022-11-20T14:11:56;52.50;;;27.10;;
44440;SDS011;30146;52.268;20.944;2022-11-20T14:14:29;51.00;;;24.60;;
44440;SDS011;30146;52.268;20.944;2022-11-20T14:17:07;47.00;;;25.80;;
44440;SDS011;30146;52.268;20.944;2022-11-20T14:19:47;52.20;;;24.60;;
44440;SDS011;30146;52.268;20.944;2022-11-20T14:22:21;47.40;;;26.40;;
44440;SDS011;30146;52.268;20.944;2022-11-20T14:25:02;56.10;;;29.20;;
44440;SDS011;30146;52.268;20.944;2022-11-20T14:27:37;54.90;;;28.40;;
44440;SDS011;30146;52.268;20.944;2022-11-20T14:30:14;47.70;;;26.90;;
44440;SDS011;30146;52.268;20.944;2022-11-20T14:32:48;53.70;;;28.10;;
44440;SDS011;30146;52.268;20.944;2022-11-20T14:35:23;50.30;;;24.60;;
44440;SDS011;30146;52.268;20.944;2022-11-20T14:37:57;54.20;;;28.00;;
44440;SDS011;30146;52.268;20.944;2022-11-20T14:40:31;51.10;;;28.60;;
44440;SDS011;30146;52.268;20.944;2022-11-20T14:43:15;53.40;;;30.60;;
44440;SDS011;30146;52.268;20.944;2022-11-20T14:45:52;40.50;;;22.90;;
44440;SDS011;30146;52.268;20.944;2022-11-20T14:48:30;49.70;;;27.60;;
44440;SDS011;30146;52.268;20.944;2022-11-20T14:51:08;50.40;;;26.90;;
44440;SDS011;30146;52.268;20.944;2022-11-20T14:53:40;36.30;;;21.70;;
44440;SDS011;30146;52.268;20.944;2022-11-20T14:56:14;50.30;;;26.90;;
44440;SDS011;30146;52.268;20.944;2022-11-20T14:58:56;55.10;;;29.00;;
44440;SDS011;30146;52.268;20.944;2022-11-20T15:01:28;44.50;;;26.40;;